地図

経路データ

SID SEASON NUMBER BASIN SUBBASIN NAME ISO_TIME NATURE LAT LON WMO_WIND WMO_PRES WMO_AGENCY TRACK_TYPE DIST2LAND LANDFALL IFLAG USA_AGENCY USA_ATCF_ID USA_LAT USA_LON USA_RECORD USA_STATUS USA_WIND USA_PRES USA_SSHS USA_R34_NE USA_R34_SE USA_R34_SW USA_R34_NW USA_R50_NE USA_R50_SE USA_R50_SW USA_R50_NW USA_R64_NE USA_R64_SE USA_R64_SW USA_R64_NW USA_POCI USA_ROCI USA_RMW USA_EYE TOKYO_LAT TOKYO_LON TOKYO_GRADE TOKYO_WIND TOKYO_PRES TOKYO_R50_DIR TOKYO_R50_LONG TOKYO_R50_SHORT TOKYO_R30_DIR TOKYO_R30_LONG TOKYO_R30_SHORT TOKYO_LAND CMA_LAT CMA_LON CMA_CAT CMA_WIND CMA_PRES HKO_LAT HKO_LON HKO_CAT HKO_WIND HKO_PRES NEWDELHI_LAT NEWDELHI_LON NEWDELHI_GRADE NEWDELHI_WIND NEWDELHI_PRES NEWDELHI_CI NEWDELHI_DP NEWDELHI_POCI REUNION_LAT REUNION_LON REUNION_TYPE REUNION_WIND REUNION_PRES REUNION_TNUM REUNION_CI REUNION_RMW REUNION_R34_NE REUNION_R34_SE REUNION_R34_SW REUNION_R34_NW REUNION_R50_NE REUNION_R50_SE REUNION_R50_SW REUNION_R50_NW REUNION_R64_NE REUNION_R64_SE REUNION_R64_SW REUNION_R64_NW BOM_LAT BOM_LON BOM_TYPE BOM_WIND BOM_PRES BOM_TNUM BOM_CI BOM_RMW BOM_R34_NE BOM_R34_SE BOM_R34_SW BOM_R34_NW BOM_R50_NE BOM_R50_SE BOM_R50_SW BOM_R50_NW BOM_R64_NE BOM_R64_SE BOM_R64_SW BOM_R64_NW BOM_ROCI BOM_POCI BOM_EYE BOM_POS_METHOD BOM_PRES_METHOD NADI_LAT NADI_LON NADI_CAT NADI_WIND NADI_PRES WELLINGTON_LAT WELLINGTON_LON WELLINGTON_WIND WELLINGTON_PRES DS824_LAT DS824_LON DS824_STAGE DS824_WIND DS824_PRES TD9636_LAT TD9636_LON TD9636_STAGE TD9636_WIND TD9636_PRES TD9635_LAT TD9635_LON TD9635_WIND TD9635_PRES TD9635_ROCI NEUMANN_LAT NEUMANN_LON NEUMANN_CLASS NEUMANN_WIND NEUMANN_PRES MLC_LAT MLC_LON MLC_CLASS MLC_WIND MLC_PRES USA_GUST BOM_GUST BOM_GUST_PER REUNION_GUST REUNION_GUST_PER USA_SEAHGT USA_SEARAD_NE USA_SEARAD_SE USA_SEARAD_SW USA_SEARAD_NW STORM_SPEED STORM_DIR
1995264N06174 1995 70 WP MM SIBYL 1995-09-21 06:00:00 NR 6.00000 174.100 main 2186 2113 O_____________ jtwc_wp WP201995 6.00000 174.100 15 -1 21 270
1995264N06174 1995 70 WP MM SIBYL 1995-09-21 09:00:00 NR 5.99779 173.067 main 2113 2043 P_____________ WP201995 5.99779 173.067 15 -1 21 270
1995264N06174 1995 70 WP MM SIBYL 1995-09-21 12:00:00 NR 6.00000 172.000 main 2036 1964 O_____________ jtwc_wp WP201995 6.00000 172.000 15 -1 22 270
1995264N06174 1995 70 WP MM SIBYL 1995-09-21 15:00:00 NR 6.00745 170.885 main 1964 1903 P_____________ WP201995 6.00745 170.885 15 -1 22 270
1995264N06174 1995 70 WP MM SIBYL 1995-09-21 18:00:00 NR 6.00000 169.800 main 1897 1841 O_____________ jtwc_wp WP201995 6.00000 169.800 15 -1 21 269
1995264N06174 1995 70 WP MM SIBYL 1995-09-21 21:00:00 NR 5.95742 168.783 main 1841 1785 P_____________ WP201995 5.95742 168.783 15 -1 19 267
1995264N06174 1995 70 WP MM SIBYL 1995-09-22 00:00:00 NR 5.90000 167.900 main 1785 1752 O_____________ jtwc_wp WP201995 5.90000 167.900 15 -1 16 266
1995264N06174 1995 70 WP MM SIBYL 1995-09-22 03:00:00 NR 5.84977 167.198 main 1742 1716 P_____________ WP201995 5.84977 167.198 17 -1 13 266
1995264N06174 1995 70 WP MM SIBYL 1995-09-22 06:00:00 NR 5.80000 166.600 main 1716 1692 O_____________ jtwc_wp WP201995 5.80000 166.600 20 -1 12 266
1995264N06174 1995 70 WP MM SIBYL 1995-09-22 09:00:00 NR 5.76484 166.015 main 1692 1660 P_____________ WP201995 5.76484 166.015 22 -1 12 265
1995264N06174 1995 70 WP MM SIBYL 1995-09-22 12:00:00 NR 5.70000 165.400 main 1660 1622 O_____________ jtwc_wp WP201995 5.70000 165.400 25 -1 13 261
1995264N06174 1995 70 WP MM SIBYL 1995-09-22 15:00:00 NR 5.54989 164.695 main 1612 1567 P_____________ WP201995 5.54989 164.695 25 -1 15 259
1995264N06174 1995 70 WP MM SIBYL 1995-09-22 18:00:00 NR 5.40000 163.900 main 1567 1510 O_____________ jtwc_wp WP201995 5.40000 163.900 25 -1 17 262
1995264N06174 1995 70 WP MM SIBYL 1995-09-22 21:00:00 NR 5.32753 163.008 main 1504 1448 P_____________ WP201995 5.32753 163.008 25 -1 18 267
1995264N06174 1995 70 WP MM SIBYL 1995-09-23 00:00:00 NR 5.30000 162.100 main 1448 1398 O_____________ jtwc_wp WP201995 5.30000 162.100 25 -1 17 269
1995264N06174 1995 70 WP MM SIBYL 1995-09-23 03:00:00 NR 5.28481 161.293 main 1398 1340 P_____________ WP201995 5.28481 161.293 25 -1 16 270
1995264N06174 1995 70 WP MM SIBYL 1995-09-23 06:00:00 NR 5.30000 160.500 main 1340 1285 O_____________ jtwc_wp WP201995 5.30000 160.500 25 -1 16 272
1995264N06174 1995 70 WP MM SIBYL 1995-09-23 09:00:00 NR 5.33488 159.665 main 1285 1233 P_____________ WP201995 5.33488 159.665 22 -1 17 273
1995264N06174 1995 70 WP MM SIBYL 1995-09-23 12:00:00 NR 5.40000 158.800 main 1233 1190 O_____________ jtwc_wp WP201995 5.40000 158.800 20 -1 18 275
1995264N06174 1995 70 WP MM SIBYL 1995-09-23 15:00:00 NR 5.49240 157.908 main 1184 1147 P_____________ WP201995 5.49240 157.908 17 -1 18 276
1995264N06174 1995 70 WP MM SIBYL 1995-09-23 18:00:00 NR 5.60000 157.000 main 1141 1100 O_____________ jtwc_wp WP201995 5.60000 157.000 15 -1 18 277
1995264N06174 1995 70 WP MM SIBYL 1995-09-23 21:00:00 NR 5.69986 156.100 main 1100 1065 P_____________ WP201995 5.69986 156.100 15 -1 18 276
1995264N06174 1995 70 WP MM SIBYL 1995-09-24 00:00:00 NR 5.80000 155.200 main 1065 1035 O_____________ jtwc_wp WP201995 5.80000 155.200 15 -1 18 276
1995264N06174 1995 70 WP MM SIBYL 1995-09-24 03:00:00 NR 5.89986 154.300 main 1035 1013 P_____________ WP201995 5.89986 154.300 17 -1 18 276
1995264N06174 1995 70 WP MM SIBYL 1995-09-24 06:00:00 NR 6.00000 153.400 main 1013 1002 O_____________ jtwc_wp WP201995 6.00000 153.400 20 -1 18 277
1995264N06174 1995 70 WP MM SIBYL 1995-09-24 09:00:00 NR 6.10731 152.508 main 1002 996 P_____________ WP201995 6.10731 152.508 20 -1 18 276
1995264N06174 1995 70 WP MM SIBYL 1995-09-24 12:00:00 NR 6.20000 151.600 main 1000 997 O_____________ jtwc_wp WP201995 6.20000 151.600 20 -1 18 274
1995264N06174 1995 70 WP MM SIBYL 1995-09-24 15:00:00 NR 6.24983 150.665 main 997 978 P_____________ WP201995 6.24983 150.665 20 -1 19 273
1995264N06174 1995 70 WP MM SIBYL 1995-09-24 18:00:00 NR 6.30000 149.700 main 975 962 O_____________ jtwc_wp WP201995 6.30000 149.700 20 -1 20 274
1995264N06174 1995 70 WP MM SIBYL 1995-09-24 21:00:00 NR 6.39985 148.708 main 963 957 P_____________ WP201995 6.39985 148.708 20 -1 20 276
1995264N06174 1995 70 WP MM SIBYL 1995-09-25 00:00:00 NR 6.50000 147.700 main 964 963 O_____________ jtwc_wp WP201995 6.50000 147.700 20 -1 20 274
1995264N06174 1995 70 WP MM SIBYL 1995-09-25 03:00:00 NR 6.54997 146.670 main 963 963 P_____________ WP201995 6.54997 146.670 20 -1 20 273
1995264N06174 1995 70 WP MM SIBYL 1995-09-25 06:00:00 NR 6.60000 145.700 main 980 980 O_____________ jtwc_wp WP201995 6.60000 145.700 20 -1 18 275
1995264N06174 1995 70 WP MM SIBYL 1995-09-25 09:00:00 NR 6.69221 144.870 main 1004 1004 P_____________ WP201995 6.69221 144.870 20 -1 16 277
1995264N06174 1995 70 WP MM SIBYL 1995-09-25 12:00:00 NR 6.80000 144.100 main 1035 1035 O_____________ jtwc_wp WP201995 6.80000 144.100 20 -1 16 278
1995264N06174 1995 70 WP MM SIBYL 1995-09-25 15:00:00 NR 6.90747 143.278 main 1073 1072 P_____________ WP201995 6.90747 143.278 20 -1 16 277
1995264N06174 1995 70 WP MM SIBYL 1995-09-25 18:00:00 NR 7.00000 142.500 main 1072 1052 O_____________ jtwc_wp WP201995 7.00000 142.500 20 -1 15 276
1995264N06174 1995 70 WP MM SIBYL 1995-09-25 21:00:00 NR 7.06484 141.820 main 1053 1030 P_____________ WP201995 7.06484 141.820 20 -1 13 274
1995264N06174 1995 70 WP MM SIBYL 1995-09-26 00:00:00 NR 7.10000 141.200 main 1030 1010 O_____________ jtwc_wp WP201995 7.10000 141.200 20 -1 12 272
1995264N06174 1995 70 WP MM SIBYL 1995-09-26 03:00:00 NR 7.11486 140.600 main 1010 995 P_____________ WP201995 7.11486 140.600 22 -1 12 270
1995264N06174 1995 70 WP MM SIBYL 1995-09-26 06:00:00 NR 7.10000 140.000 main 995 966 O_____________ jtwc_wp WP201995 7.10000 140.000 25 -1 12 267
1995264N06174 1995 70 WP MM SIBYL 1995-09-26 09:00:00 NR 7.04994 139.357 main 956 927 P_____________ WP201995 7.04994 139.357 25 -1 13 266
1995264N06174 1995 70 WP MM SIBYL 1995-09-26 12:00:00 NR 7.00000 138.700 main 927 906 O_____________ jtwc_wp WP201995 7.00000 138.700 25 -1 13 267
1995264N06174 1995 70 WP MM SIBYL 1995-09-26 15:00:00 NR 6.96997 138.035 main 903 885 P_____________ WP201995 6.96997 138.035 25 -1 13 270
1995264N06174 1995 70 WP MM SIBYL 1995-09-26 18:00:00 NR 7.00000 137.400 main 885 878 O_____________ jtwc_wp WP201995 7.00000 137.400 25 -1 12 278
1995264N06174 1995 70 WP MM SIBYL 1995-09-26 21:00:00 NR 7.13482 136.850 main 885 884 P_____________ WP201995 7.13482 136.850 25 -1 11 291
1995264N06174 1995 70 WP MM SIBYL 1995-09-27 00:00:00 TS 7.38000 136.380 main 912 909 O_O___________ jtwc_wp WP201995 7.30000 136.300 25 -1 7.70000 136.700 0 19 1006 12 288
1995264N06174 1995 70 WP MM SIBYL 1995-09-27 03:00:00 TS 7.50843 135.722 main 918 902 P_P___________ WP201995 7.39247 135.665 25 -1 7.74035 135.837 0 21 1005 15 281
1995264N06174 1995 70 WP MM SIBYL 1995-09-27 06:00:00 TS 7.65000 134.938 1006 tokyo main 900 849 OOO___________ jtwc_wp WP201995 7.50000 135.000 25 -1 7.80000 134.500 2 1006 0 0 0 7.80000 135.000 1 23 1004 15 282
1995264N06174 1995 70 WP MM SIBYL 1995-09-27 09:00:00 TS 7.81441 134.235 main 838 772 PPP___________ WP201995 7.69233 134.365 25 -1 7.90259 134.018 2 1006 0 0 7.89239 134.213 1 23 1004 14 283
1995264N06174 1995 70 WP MM SIBYL 1995-09-27 12:00:00 TS 7.96364 133.573 1006 tokyo main 772 706 OOO___________ jtwc_wp WP201995 7.90000 133.700 25 -1 8.00000 133.500 2 1006 0 0 0 8.00000 133.500 1 23 1004 13 281
1995264N06174 1995 70 WP MM SIBYL 1995-09-27 15:00:00 TS 8.07327 132.914 main 695 630 PPP___________ WP201995 8.03509 132.935 27 -1 8.09244 132.922 2 1005 0 0 8.09227 132.885 1 26 1003 13 280
1995264N06174 1995 70 WP MM SIBYL 1995-09-27 18:00:00 TS 8.20000 132.267 1004 tokyo main 630 556 OOO___________ jtwc_wp WP201995 8.20000 132.200 30 -1 8.20000 132.300 2 1004 0 0 0 8.20000 132.300 1 29 1002 13 283
1995264N06174 1995 70 WP MM SIBYL 1995-09-27 21:00:00 TS 8.36252 131.612 main 556 503 PPP___________ WP201995 8.47737 131.598 30 -1 8.30509 131.620 2 1003 0 0 8.30509 131.620 1 29 1002 13 288
1995264N06174 1995 70 WP MM SIBYL 1995-09-28 00:00:00 TS 8.60000 131.033 1002 tokyo main 495 460 OOO___________ jtwc_wp WP201995 8.80000 131.100 30 -1 8.50000 131.000 2 1002 0 0 0 8.50000 131.000 1 29 1002 12 300
1995264N06174 1995 70 WP MM SIBYL 1995-09-28 03:00:00 TS 8.94898 130.606 main 460 432 PPP___________ WP201995 9.09982 130.692 30 -1 8.86982 130.562 2 1001 0 0 8.87731 130.563 1 29 1001 11 311
1995264N06174 1995 70 WP MM SIBYL 1995-09-28 06:00:00 TS 9.29231 130.215 1000 tokyo main 432 392 OOOO__________ jtwc_wp WP201995 9.40000 130.300 30 -1 9.30000 130.200 2 1000 0 0 0 9.30000 130.200 1 29 1000 8.80000 130.000 TD 30 1000 10 308
1995264N06174 1995 70 WP MM SIBYL 1995-09-28 09:00:00 TS 9.58566 129.771 main 394 346 PPPP__________ WP201995 9.70752 129.808 32 -1 9.67979 129.837 2 999 0 0 9.62992 129.807 1 31 999 9.06517 129.490 TD 30 1000 11 302
1995264N06174 1995 70 WP MM SIBYL 1995-09-28 12:00:00 TS 9.85333 129.293 35 998 tokyo main 349 302 OOOO__________ jtwc_wp WP201995 10.0000 129.300 35 0 10.0000 129.400 3 35 998 0 8 200 100 0 9.90000 129.400 2 34 998 9.40000 129.000 TD 30 1000 11 298
1995264N06174 1995 70 WP MM SIBYL 1995-09-28 15:00:00 TS 10.1112 128.784 main 302 261 PPPP__________ WP201995 10.2573 128.857 37 0 10.2302 128.757 3 35 998 0 8 200 100 10.1149 128.980 2 36 996 9.84241 128.543 TD 32 998 11 297
1995264N06174 1995 70 WP MM SIBYL 1995-09-28 18:00:00 TS 10.3750 128.275 35 998 tokyo main 266 223 OOOO__________ jtwc_wp WP201995 10.5000 128.400 40 0 10.4000 128.100 3 35 998 0 8 200 100 0 10.3000 128.500 2 38 995 10.3000 128.100 TS 35 996 11 297
1995264N06174 1995 70 WP MM SIBYL 1995-09-28 21:00:00 TS 10.6143 127.772 main 223 165 PPPP__________ WP201995 10.7575 127.865 42 0 10.5346 127.657 3 35 998 0 8 200 130 10.4851 127.900 2 41 992 10.6799 127.665 TS 40 993 11 295
1995264N06174 1995 70 WP MM SIBYL 1995-09-29 00:00:00 TS 10.8500 127.250 35 998 tokyo main 164 98 OOOO__________ jtwc_wp WP201995 11.0000 127.300 45 0 10.7000 127.200 3 35 998 0 1 200 160 0 10.7000 127.300 2 44 990 11.0000 127.200 TS 45 990 12 295
1995264N06174 1995 70 WP MM SIBYL 1995-09-29 03:00:00 TS 11.1106 126.686 main 98 55 PPPP__________ WP201995 11.2148 126.765 50 0 10.9629 126.485 3 35 998 0 1 200 160 10.9998 126.835 2 44 990 11.2650 126.657 TS 45 990 12 295
1995264N06174 1995 70 WP MM SIBYL 1995-09-29 06:00:00 TS 11.3750 126.125 35 998 tokyo main 54 15 OOOO__________ jtwc_wp WP201995 11.4000 126.200 55 0 11.3000 125.800 3 35 998 0 1 200 160 0 11.3000 126.400 2 44 990 11.5000 126.100 TS 45 990 12 296
1995264N06174 1995 70 WP MM SIBYL 1995-09-29 09:00:00 TS 11.6211 125.619 main 15 0 PPPP__________ WP201995 11.5426 125.535 60 0 11.7071 125.420 3 37 996 0 1 180 160 11.4848 125.930 2 44 990 11.7499 125.592 TS 45 990 11 297
1995264N06174 1995 70 WP MM SIBYL 1995-09-29 12:00:00 TS 11.8750 125.125 40 994 tokyo main 0 0 OOOO__________ jtwc_wp WP201995 11.7000 124.900 65 1 12.1000 125.100 3 40 994 0 9 160 160 0 11.7000 125.400 2 44 990 12.0000 125.100 TS 45 990 11 299
1995264N06174 1995 70 WP MM SIBYL 1995-09-29 15:00:00 TS 12.1700 124.596 main 0 0 PPPP__________ WP201995 11.9348 124.420 70 1 12.3875 124.630 3 42 993 0 9 160 160 12.1002 124.735 2 44 990 12.2574 124.600 TS 45 990 12 299
1995264N06174 1995 70 WP MM SIBYL 1995-09-29 18:00:00 TS 12.4500 124.075 45 992 tokyo main 0 10 OOOO__________ jtwc_wp WP201995 12.2000 124.000 75 1 12.6000 124.100 3 45 992 0 9 160 160 0 12.5000 124.100 2 44 990 12.5000 124.100 TS 45 990 11 297
1995264N06174 1995 70 WP MM SIBYL 1995-09-29 21:00:00 TS 12.6649 123.596 main 15 15 PPPP__________ WP201995 12.4499 123.550 82 1 12.7576 123.527 3 47 991 0 9 160 160 12.7370 123.700 2 46 987 12.7149 123.607 TS 47 987 10 293
1995264N06174 1995 70 WP MM SIBYL 1995-09-30 00:00:00 TS 12.8500 123.125 50 990 tokyo main 24 22 OOOO__________ jtwc_wp WP201995 12.7000 123.100 90 2 12.9000 123.000 4 50 990 0 9 160 160 0 12.9000 123.300 3 48 985 12.9000 123.100 STS 50 985 10 290
1995264N06174 1995 70 WP MM SIBYL 1995-09-30 03:00:00 TS 13.0301 122.589 main 22 15 PPPP__________ WP201995 12.9426 122.620 90 2 13.0849 122.605 4 50 990 0 9 160 160 13.0580 122.620 3 48 985 13.0352 122.512 STS 52 982 10 291
1995264N06174 1995 70 WP MM SIBYL 1995-09-30 06:00:00 TS 13.2250 122.125 50 990 tokyo main 46 39 OOOO__________ jtwc_wp WP201995 13.2000 122.200 90 2 13.3000 122.300 4 50 990 0 9 160 160 0 13.2000 122.000 3 48 985 13.2000 122.000 STS 55 980 8 299
1995264N06174 1995 70 WP MM SIBYL 1995-09-30 09:00:00 TS 13.4317 121.857 main 46 21 PPPP__________ WP201995 13.4623 121.935 92 2 13.5199 122.050 4 50 990 0 9 160 160 13.2897 121.740 3 53 982 13.4548 121.705 STS 55 980 7 317
1995264N06174 1995 70 WP MM SIBYL 1995-09-30 12:00:00 TS 13.7250 121.650 50 990 tokyo main 21 0 OOOO__________ jtwc_wp WP201995 13.8000 121.700 95 2 13.8000 121.800 4 50 990 0 9 160 160 0 13.5000 121.600 3 58 980 13.8000 121.500 STS 55 980 9 329
1995264N06174 1995 70 WP MM SIBYL 1995-09-30 15:00:00 TS 14.1604 121.406 main 0 0 PPPP__________ WP201995 14.2698 121.402 90 2 14.1548 121.510 4 50 990 0 9 160 160 13.9898 121.410 3 58 980 14.2272 121.302 STS 52 982 11 329
1995264N06174 1995 70 WP MM SIBYL 1995-09-30 18:00:00 TS 14.6750 121.050 50 990 tokyo main 0 0 OOOO__________ jtwc_wp WP201995 14.8000 121.000 85 2 14.6000 121.100 4 50 990 0 9 160 160 0 14.6000 121.100 3 58 980 14.7000 121.000 STS 50 985 14 320
1995264N06174 1995 70 WP MM SIBYL 1995-09-30 21:00:00 TS 15.2119 120.498 main 0 0 PPPP__________ WP201995 15.3300 120.445 80 1 15.1651 120.503 4 50 990 0 9 180 160 15.1875 120.575 3 58 980 15.1650 120.468 STS 50 985 16 311
1995264N06174 1995 70 WP MM SIBYL 1995-10-01 00:00:00 TS 15.7000 119.825 50 990 tokyo main 10 10 OOOO__________ jtwc_wp WP201995 15.8000 119.800 75 1 15.7000 119.800 4 50 990 0 8 200 160 0 15.7000 119.900 3 58 980 15.6000 119.800 STS 50 985 16 303
1995264N06174 1995 70 WP MM SIBYL 1995-10-01 03:00:00 TS 16.0537 119.132 main 65 65 PPPP__________ WP201995 16.1373 119.165 72 1 16.0524 119.100 4 50 987 0 8 200 160 16.0451 119.157 3 58 980 15.9800 119.107 STS 50 985 15 295
1995264N06174 1995 70 WP MM SIBYL 1995-10-01 06:00:00 TS 16.3250 118.425 50 985 tokyo main 142 142 OOOO__________ jtwc_wp WP201995 16.4000 118.500 70 1 16.3000 118.400 4 50 985 0 8 200 160 0 16.3000 118.400 3 58 980 16.3000 118.400 STS 50 985 14 291
1995264N06174 1995 70 WP MM SIBYL 1995-10-01 09:00:00 TS 16.5773 117.745 main 223 223 PPPP__________ WP201995 16.6725 117.785 70 1 16.5074 117.727 4 50 985 0 8 200 180 16.5646 117.742 3 58 980 16.5649 117.727 STS 52 982 14 291
1995264N06174 1995 70 WP MM SIBYL 1995-10-01 12:00:00 TS 16.8000 117.100 50 985 tokyo main 291 291 OOOO__________ jtwc_wp WP201995 16.9000 117.100 70 1 16.7000 117.100 4 50 985 0 9 200 200 0 16.8000 117.100 3 58 980 16.8000 117.100 STS 55 980 13 290
1995264N06174 1995 70 WP MM SIBYL 1995-10-01 15:00:00 TS 17.0067 116.484 main 359 359 PPPP__________ WP201995 17.0423 116.512 70 1 16.9423 116.527 4 50 985 0 9 200 200 17.0002 116.370 3 58 980 17.0423 116.527 STS 55 980 12 291
1995264N06174 1995 70 WP MM SIBYL 1995-10-01 18:00:00 TS 17.2250 115.925 50 985 tokyo main 426 426 OOOO__________ jtwc_wp WP201995 17.2000 116.000 70 1 17.2000 116.000 4 50 985 0 9 200 200 0 17.2000 115.700 3 58 980 17.3000 116.000 STS 55 980 11 295
1995264N06174 1995 70 WP MM SIBYL 1995-10-01 21:00:00 TS 17.4792 115.427 main 487 466 PPPP__________ WP201995 17.4773 115.535 70 1 17.4349 115.485 4 50 985 0 9 200 200 17.4122 115.197 3 58 980 17.5923 115.492 STS 55 980 11 301
1995264N06174 1995 70 WP MM SIBYL 1995-10-02 00:00:00 TS 17.7750 114.975 50 985 tokyo main 466 414 OOOO__________ jtwc_wp WP201995 17.8000 115.100 70 1 17.7000 115.000 4 50 985 0 9 200 200 0 17.7000 114.800 3 58 980 17.9000 115.000 STS 55 980 11 307
1995264N06174 1995 70 WP MM SIBYL 1995-10-02 03:00:00 TS 18.1079 114.539 main 404 348 PPPP__________ WP201995 18.0848 114.657 67 1 18.0198 114.550 4 50 985 0 9 200 200 18.1422 114.457 3 61 977 18.1849 114.492 STS 60 975 11 310
1995264N06174 1995 70 WP MM SIBYL 1995-10-02 06:00:00 TS 18.4750 114.100 50 985 tokyo main 348 287 OOOO__________ jtwc_wp WP201995 18.4000 114.200 65 1 18.4000 114.100 4 50 985 0 9 200 200 0 18.6000 114.100 4 64 975 18.5000 114.000 T 65 970 12 310
1995264N06174 1995 70 WP MM SIBYL 1995-10-02 09:00:00 TS 18.8626 113.599 main 283 224 PPPP__________ WP201995 18.7926 113.685 65 1 18.8576 113.585 4 50 985 0 9 200 200 18.9077 113.600 4 64 975 18.8924 113.528 T 65 970 12 310
1995264N06174 1995 70 WP MM SIBYL 1995-10-02 12:00:00 TS 19.2500 113.125 50 985 tokyo main 222 188 OOOO__________ jtwc_wp WP201995 19.2000 113.200 65 1 19.3000 113.100 4 50 985 0 9 200 200 0 19.2000 113.100 4 64 975 19.3000 113.100 T 65 970 11 312
1995264N06174 1995 70 WP MM SIBYL 1995-10-02 15:00:00 TS 19.5979 112.748 main 178 150 PPPP__________ WP201995 19.5498 112.820 62 0 19.6073 112.727 4 50 985 0 9 200 200 19.5848 112.727 4 64 975 19.6499 112.720 T 65 970 10 317
1995264N06174 1995 70 WP MM SIBYL 1995-10-02 18:00:00 TS 19.9500 112.425 50 985 tokyo main 153 133 OOOO__________ jtwc_wp WP201995 19.9000 112.500 60 0 19.9000 112.400 4 50 985 0 9 200 200 0 20.0000 112.400 4 64 975 20.0000 112.400 T 65 970 9 320
1995264N06174 1995 70 WP MM SIBYL 1995-10-02 21:00:00 TS 20.3255 112.108 main 133 91 PPPP__________ WP201995 20.2774 112.200 60 0 20.2775 112.035 4 50 985 0 9 200 200 20.3699 112.050 4 64 975 20.3773 112.150 T 65 970 10 324
1995264N06174 1995 70 WP MM SIBYL 1995-10-03 00:00:00 TS 20.7500 111.800 50 985 tokyo main 80 30 OOOO__________ jtwc_wp WP201995 20.7000 111.900 60 0 20.7000 111.700 4 50 985 0 9 200 200 0 20.8000 111.700 4 64 975 20.8000 111.900 T 65 970 11 327
1995264N06174 1995 70 WP MM SIBYL 1995-10-03 03:00:00 TS 21.2494 111.456 main 30 0 PPPP__________ WP201995 21.1702 111.513 57 0 21.1424 111.435 4 47 989 0 9 200 150 21.4001 111.320 4 61 977 21.2851 111.558 T 57 977 12 329
1995264N06174 1995 70 WP MM SIBYL 1995-10-03 06:00:00 TS 21.7750 111.150 45 994 tokyo main 0 0 OOOO__________ jtwc_wp WP201995 21.7000 111.200 55 0 21.6000 111.200 3 45 994 0 3 200 100 0 22.0000 111.000 3 58 980 21.8000 111.200 STS 50 985 12 334
1995264N06174 1995 70 WP MM SIBYL 1995-10-03 09:00:00 TS 22.2831 110.914 main 0 0 PPPP__________ WP201995 22.3149 111.105 45 0 22.0501 110.905 3 40 996 0 3 150 100 22.4449 110.775 3 46 989 22.3225 110.870 STS 42 990 10 341
1995264N06174 1995 70 WP MM SIBYL 1995-10-03 12:00:00 TS 22.7467 110.787 35 998 tokyo main 0 0 OOOO__________ jtwc_wp WP201995 22.9000 111.100 35 0 22.5000 110.700 3 35 998 0 9 100 100 0 22.8000 110.700 2 34 998 22.8000 110.600 TS 35 995 9 351
1995264N06174 1995 70 WP MM SIBYL 1995-10-03 15:00:00 TS 23.1471 110.775 main 0 0 PPPP__________ WP201995 23.3375 111.050 32 -1 22.9723 110.660 3 1000 0 9 23.1150 110.790 2 28 999 23.1800 110.422 TS 30 997 8 6
1995264N06174 1995 70 WP MM SIBYL 1995-10-03 18:00:00 TS 23.5083 110.875 1002 tokyo main 0 0 OOOO__________ jtwc_wp WP201995 23.7000 111.000 30 -1 23.4000 110.800 2 1002 0 0 0 23.4000 111.000 1 23 1000 23.5000 110.300 TD 25 1000 8 20
1995264N06174 1995 70 WP MM SIBYL 1995-10-03 21:00:00 TS 23.8570 111.056 main 0 0 PPP___________ WP201995 24.0650 110.935 27 -1 23.7299 111.083 2 1005 0 0 23.6951 111.245 1 21 1002 TD 7 26
1995264N06174 1995 70 WP MM SIBYL 1995-10-04 00:00:00 TS 24.1778 111.233 1008 tokyo main 0 0 OOO___________ jtwc_wp WP201995 24.4000 110.900 25 -1 24.0000 111.500 2 1008 0 0 0 24.0000 111.500 0 19 1004 7 29
1995264N06174 1995 70 WP MM SIBYL 1995-10-04 03:00:00 TS 24.5013 111.456 main 0 0 PP____________ WP201995 24.7075 110.935 22 -1 24.2950 111.977 2 1008 0 0 0 7 39
1995264N06174 1995 70 WP MM SIBYL 1995-10-04 06:00:00 TS 24.7500 111.750 1008 tokyo main 0 0 OO____________ jtwc_wp WP201995 25.0000 111.000 20 -1 24.5000 112.500 2 1008 0 0 0 7 51
1995264N06174 1995 70 WP MM SIBYL 1995-10-04 09:00:00 TS 24.9226 112.031 main 0 0 PP____________ WP201995 25.2975 111.055 17 -1 24.5477 113.008 2 1009 0 0 6 59
1995264N06174 1995 70 WP MM SIBYL 1995-10-04 12:00:00 TS 25.0500 112.300 1010 tokyo main 0 OO____________ jtwc_wp WP201995 25.6000 111.100 15 -1 24.5000 113.500 2 1010 0 0 0 5 62

デジタル台風データ・検索

IBTrACS Databaseについて

本データベースは、米国NOAAが公開する1842年以降の世界の熱帯低気圧のベストトラックデータアーカイブInternational Best Track Archive for Climate Stewardship (IBTrACS)を、ウェブで閲覧しやすい形式に変換したものです。

最終更新日:2021-10-08